createdAt,value
2018-11-02T00:00:41.503Z,98975.88
2018-11-02T00:03:12.432Z,98978.86
2018-11-02T00:05:42.237Z,98937.87
2018-11-02T00:08:12.326Z,98974.88
2018-11-02T00:10:41.912Z,98976.80
2018-11-02T00:13:12.124Z,98979.80
2018-11-02T00:15:42.320Z,98986.66
2018-11-02T00:18:12.483Z,98996.25
2018-11-02T00:20:42.026Z,98993.09
2018-11-02T00:23:11.926Z,98987.80
2018-11-02T00:25:42.039Z,99000.02
2018-11-02T00:28:11.645Z,98995.65
2018-11-02T00:30:42.335Z,98996.71
2018-11-02T00:33:11.931Z,98990.88
2018-11-02T00:35:41.769Z,99001.65
2018-11-02T00:38:12.333Z,99013.50
2018-11-02T00:40:42.005Z,99013.27
2018-11-02T00:43:11.732Z,99011.94
2018-11-02T00:45:42.437Z,99010.16
2018-11-02T00:48:12.656Z,99014.03
2018-11-02T00:50:42.518Z,99006.92
2018-11-02T00:53:12.846Z,99014.39
2018-11-02T00:55:43.006Z,98966.84
2018-11-02T00:58:12.746Z,98862.53
2018-11-02T01:00:43.013Z,99019.04
2018-11-02T01:03:13.062Z,98985.45
2018-11-02T01:05:43.250Z,99012.64
2018-11-02T01:08:13.530Z,98951.92
2018-11-02T01:10:43.043Z,99024.66
2018-11-02T01:13:13.239Z,99031.28
2018-11-02T01:15:43.721Z,99037.91
2018-11-02T01:18:14.039Z,99037.06
2018-11-02T01:20:43.975Z,99046.85
2018-11-02T01:23:13.901Z,98806.27
2018-11-02T01:25:44.022Z,98986.56
2018-11-02T01:28:14.606Z,99056.13
2018-11-02T01:30:44.828Z,99063.22
2018-11-02T01:33:14.929Z,99063.75
2018-11-02T01:35:44.613Z,99064.63
2018-11-02T01:38:14.138Z,99061.58
2018-11-02T01:40:44.083Z,99059.44
2018-11-02T01:43:13.597Z,99072.77
2018-11-02T01:45:43.178Z,99086.20
2018-11-02T01:48:13.169Z,99081.34
2018-11-02T01:50:42.709Z,99082.91
2018-11-02T01:53:27.137Z,98996.48
2018-11-02T01:55:58.921Z,99092.67
2018-11-02T01:58:29.678Z,99083.65
2018-11-02T02:00:59.345Z,99089.41
2018-11-02T02:03:29.237Z,99082.73
2018-11-02T02:05:58.769Z,99079.78
2018-11-02T02:08:28.853Z,99076.02
2018-11-02T02:10:58.485Z,99120.43
2018-11-02T02:13:28.707Z,99077.19
2018-11-02T02:15:58.378Z,99078.89
2018-11-02T02:18:28.100Z,99075.80
2018-11-02T02:20:58.763Z,99120.05
2018-11-02T02:23:28.320Z,99066.67
2018-11-02T02:25:58.050Z,99074.27
2018-11-02T02:28:28.542Z,99076.58
2018-11-02T02:30:58.720Z,99081.97
2018-11-02T02:33:28.742Z,99082.89
2018-11-02T02:35:59.406Z,99077.75
2018-11-02T02:38:29.046Z,99081.13
2018-11-02T02:40:58.973Z,99079.52
2018-11-02T02:43:29.591Z,99088.05
2018-11-02T02:45:59.727Z,98988.34
2018-11-02T02:48:30.519Z,99097.96
2018-11-02T02:51:00.955Z,99107.58
2018-11-02T02:53:30.908Z,99115.19
2018-11-02T02:56:01.091Z,99067.28
2018-11-02T02:58:31.655Z,99115.25
2018-11-02T03:01:01.256Z,99122.63
2018-11-02T03:03:30.813Z,99117.30
2018-11-02T03:06:00.420Z,99130.82
2018-11-02T03:08:30.479Z,99124.71
2018-11-02T03:11:00.390Z,99073.92
2018-11-02T03:13:30.699Z,99135.46
2018-11-02T03:16:00.985Z,99137.09
2018-11-02T03:18:30.959Z,99147.98
2018-11-02T03:21:01.789Z,99146.00
2018-11-02T03:23:31.767Z,99057.48
2018-11-02T03:26:01.395Z,99154.55
2018-11-02T03:28:31.949Z,99053.42
2018-11-02T03:31:02.136Z,99153.09
2018-11-02T03:33:31.808Z,99159.84
2018-11-02T03:36:02.487Z,99157.41
2018-11-02T03:38:32.635Z,99170.25
2018-11-02T03:41:02.291Z,99175.92
2018-11-02T03:43:31.949Z,99172.61
2018-11-02T03:46:02.503Z,99170.43
2018-11-02T03:48:32.163Z,99186.52
2018-11-02T03:51:01.752Z,99197.27
2018-11-02T03:53:31.376Z,99209.84
2018-11-02T03:56:02.251Z,99194.94
2018-11-02T03:58:32.488Z,99201.27
2018-11-02T04:01:02.359Z,99200.83
2018-11-02T04:03:32.387Z,99194.02
2018-11-02T04:06:02.420Z,99090.48
2018-11-02T04:08:32.713Z,99021.20
2018-11-02T04:11:02.835Z,99185.48
2018-11-02T04:13:33.268Z,99188.30
2018-11-02T04:16:03.376Z,99190.77
2018-11-02T04:18:34.823Z,99189.62
2018-11-02T04:21:04.881Z,99187.72
2018-11-02T04:23:34.575Z,99199.90
2018-11-02T04:26:04.727Z,99214.00
2018-11-02T04:28:34.671Z,99217.17
2018-11-02T04:31:04.351Z,99221.93
2018-11-02T04:33:34.553Z,99220.62
2018-11-02T04:36:04.241Z,99225.77
2018-11-02T04:38:34.616Z,99228.64
2018-11-02T04:41:04.755Z,99227.73
2018-11-02T04:43:35.306Z,99051.58
2018-11-02T04:46:05.260Z,99231.94
2018-11-02T04:48:35.369Z,99231.94
2018-11-02T04:51:05.772Z,99229.38
2018-11-02T04:53:37.524Z,99212.95
2018-11-02T04:56:07.163Z,99080.10
2018-11-02T04:58:36.951Z,99242.58
2018-11-02T05:01:07.051Z,99245.13
2018-11-02T05:03:37.091Z,99255.25
2018-11-02T05:06:06.756Z,99136.42
2018-11-02T05:08:41.630Z,99274.02
2018-11-02T05:11:12.118Z,99279.11
2018-11-02T05:13:43.615Z,99292.45
2018-11-02T05:16:13.848Z,99291.31
2018-11-02T05:18:43.519Z,99304.42
2018-11-02T05:21:13.139Z,99310.68
2018-11-02T05:23:43.120Z,99169.19
2018-11-02T05:26:13.334Z,99308.70
2018-11-02T05:28:43.861Z,99311.19
2018-11-02T05:31:26.351Z,99305.85
2018-11-02T05:34:08.593Z,99321.03
2018-11-02T05:36:38.760Z,99322.73
2018-11-02T05:39:12.916Z,99329.06
2018-11-02T05:41:44.043Z,99339.52
2018-11-02T05:44:16.377Z,99350.55
2018-11-02T05:46:47.547Z,99252.74
2018-11-02T05:49:17.127Z,99303.31
2018-11-02T05:51:47.492Z,99337.59
2018-11-02T05:54:17.533Z,99343.05
2018-11-02T05:56:47.832Z,99321.59
2018-11-02T05:59:17.841Z,99374.38
2018-11-02T06:01:47.634Z,99335.73
2018-11-02T06:04:17.592Z,99337.27
2018-11-02T06:06:47.731Z,99188.23
2018-11-02T06:09:17.483Z,99278.27
2018-11-02T06:11:47.219Z,99270.02
2018-11-02T06:14:20.378Z,99336.81
2018-11-02T06:16:50.331Z,99352.23
2018-11-02T06:19:20.555Z,99358.84
2018-11-02T06:21:51.231Z,99357.38
2018-11-02T06:24:20.835Z,99370.77
2018-11-02T06:26:51.062Z,99372.88
2018-11-02T06:29:22.088Z,99380.97
2018-11-02T06:31:52.523Z,99393.88
2018-11-02T06:34:22.203Z,99398.73
2018-11-02T06:36:52.100Z,99283.63
2018-11-02T06:39:22.276Z,99420.13
2018-11-02T06:41:51.839Z,99417.95
2018-11-02T06:44:21.485Z,99426.66
2018-11-02T06:46:51.124Z,99433.77
2018-11-02T06:49:21.463Z,99447.78
2018-11-02T06:52:05.377Z,99279.39
2018-11-02T06:54:35.413Z,99447.84
2018-11-02T06:57:05.055Z,99437.11
2018-11-02T06:59:34.971Z,99463.75
2018-11-02T07:02:04.914Z,99473.25
2018-11-02T07:04:34.638Z,99469.44
2018-11-02T07:07:04.885Z,99476.72
2018-11-02T07:09:34.856Z,99496.23
2018-11-02T07:12:05.835Z,99517.31
2018-11-02T07:14:35.831Z,99480.71
2018-11-02T07:17:06.480Z,99524.42
2018-11-02T07:19:37.260Z,99446.52
2018-11-02T07:22:07.568Z,99542.88
2018-11-02T07:24:37.991Z,99544.11
2018-11-02T07:27:08.057Z,99551.12
2018-11-02T07:29:38.155Z,99557.73
2018-11-02T07:32:08.135Z,99355.63
2018-11-02T07:34:37.923Z,99560.02
2018-11-02T07:37:07.579Z,99570.94
2018-11-02T07:39:38.135Z,99565.01
2018-11-02T07:42:08.276Z,99457.89
2018-11-02T07:44:37.921Z,99574.03
2018-11-02T07:47:08.323Z,99565.22
2018-11-02T07:49:38.366Z,99577.66
2018-11-02T07:52:08.056Z,99594.05
2018-11-02T07:54:38.063Z,99577.55
2018-11-02T07:57:07.899Z,99592.53
2018-11-02T07:59:37.509Z,99584.52
2018-11-02T08:02:08.009Z,99581.76
2018-11-02T08:04:38.012Z,99591.63
2018-11-02T08:07:08.362Z,99595.44
2018-11-02T08:09:38.275Z,99589.60
2018-11-02T08:12:07.925Z,99375.30
2018-11-02T08:14:38.291Z,99582.00
2018-11-02T08:17:08.212Z,99627.63
2018-11-02T08:19:37.812Z,99596.00
2018-11-02T08:22:07.969Z,99596.50
2018-11-02T08:24:37.846Z,99599.70
2018-11-02T08:27:07.828Z,99591.59
2018-11-02T08:29:37.419Z,99607.53
2018-11-02T08:32:07.390Z,99605.98
2018-11-02T08:34:37.645Z,99615.38
2018-11-02T08:37:07.825Z,99612.36
2018-11-02T08:39:38.070Z,99612.41
2018-11-02T08:42:07.771Z,99599.10
2018-11-02T08:44:37.401Z,99617.67
2018-11-02T08:47:07.916Z,99622.45
2018-11-02T08:49:37.448Z,99628.08
2018-11-02T08:52:08.047Z,99628.36
2018-11-02T08:54:38.441Z,99489.06
2018-11-02T08:57:08.151Z,99619.53
2018-11-02T08:59:37.981Z,99611.70
2018-11-02T09:02:08.115Z,99619.61
2018-11-02T09:04:37.799Z,99605.14
2018-11-02T09:07:07.711Z,99662.25
2018-11-02T09:09:38.381Z,99506.28
2018-11-02T09:12:08.239Z,99624.15
2018-11-02T09:14:38.352Z,99614.49
2018-11-02T09:17:08.923Z,99614.73
2018-11-02T09:19:38.535Z,99609.92
2018-11-02T09:22:08.523Z,99610.27
2018-11-02T09:24:38.493Z,99608.55
2018-11-02T09:27:08.624Z,99614.34
2018-11-02T09:29:38.314Z,99621.38
2018-11-02T09:32:08.332Z,99630.72
2018-11-02T09:34:37.972Z,99639.55
2018-11-02T09:37:07.672Z,99634.34
2018-11-02T09:39:38.304Z,99634.82
2018-11-02T09:42:07.843Z,99638.06
2018-11-02T09:44:37.616Z,99606.70
2018-11-02T09:47:07.588Z,99649.59
2018-11-02T09:49:37.232Z,99563.30
2018-11-02T09:52:07.538Z,99664.98
2018-11-02T09:54:37.611Z,99640.30
2018-11-02T09:57:07.671Z,99633.67
2018-11-02T09:59:38.055Z,99627.84
2018-11-02T10:02:08.712Z,99622.52
2018-11-02T10:04:38.971Z,99623.21
2018-11-02T10:07:08.612Z,99598.98
2018-11-02T10:09:38.531Z,99639.21
2018-11-02T10:12:08.320Z,99637.03
2018-11-02T10:14:37.924Z,99644.19
2018-11-02T10:17:07.919Z,99637.98
2018-11-02T10:19:37.863Z,99671.30
2018-11-02T10:22:07.475Z,99487.62
2018-11-02T10:24:37.655Z,99607.64
2018-11-02T10:27:08.253Z,99620.17
2018-11-02T10:29:38.219Z,99624.52
2018-11-02T10:32:08.250Z,99623.61
2018-11-02T10:34:38.051Z,99620.87
2018-11-02T10:37:07.896Z,99614.69
2018-11-02T10:39:38.506Z,99568.25
2018-11-02T10:42:09.487Z,99619.22
2018-11-02T10:44:41.973Z,99611.07
2018-11-02T10:47:12.110Z,99615.75
2018-11-02T10:49:42.379Z,99606.36
2018-11-02T10:52:11.989Z,99568.57
2018-11-02T10:54:41.624Z,99617.56
2018-11-02T10:57:11.984Z,99618.13
2018-11-02T10:59:41.863Z,99624.66
2018-11-02T11:02:16.474Z,99629.33
2018-11-02T11:04:46.572Z,99632.86
2018-11-02T11:07:16.130Z,99616.99
2018-11-02T11:09:45.767Z,99642.88
2018-11-02T11:12:16.093Z,99640.00
2018-11-02T11:14:45.743Z,99640.25
2018-11-02T11:17:15.475Z,99635.54
2018-11-02T11:19:45.355Z,99642.15
2018-11-02T11:22:14.951Z,99643.98
2018-11-02T11:24:44.606Z,99645.59
2018-11-02T11:27:14.492Z,99677.44
2018-11-02T11:29:44.095Z,99647.59
2018-11-02T11:32:13.724Z,99492.67
2018-11-02T11:34:43.811Z,99632.05
2018-11-02T11:37:13.487Z,99643.84
2018-11-02T11:39:43.230Z,99656.38
2018-11-02T11:42:13.164Z,99648.17
2018-11-02T11:44:42.859Z,99642.93
2018-11-02T11:47:12.428Z,99640.30
2018-11-02T11:49:42.411Z,99568.67
2018-11-02T11:52:12.096Z,99650.32
2018-11-02T11:54:41.801Z,99644.63
2018-11-02T11:57:11.879Z,99654.01
2018-11-02T11:59:41.569Z,99652.34
2018-11-02T12:02:11.241Z,99656.00
2018-11-02T12:04:41.228Z,99654.06
2018-11-02T12:07:11.162Z,99582.41
2018-11-02T12:09:40.944Z,99525.32
2018-11-02T12:12:11.153Z,99649.83
2018-11-02T12:14:40.903Z,99647.92
2018-11-02T12:17:10.733Z,99536.69
2018-11-02T12:19:40.675Z,99657.53
2018-11-02T12:22:10.310Z,99542.09
2018-11-02T12:24:40.099Z,99645.70
2018-11-02T12:27:10.064Z,99610.12
2018-11-02T12:29:39.707Z,99614.51
2018-11-02T12:32:09.510Z,99646.92
2018-11-02T12:34:39.917Z,99651.13
2018-11-02T12:37:09.874Z,99660.66
2018-11-02T12:39:39.521Z,99649.95
2018-11-02T12:42:09.424Z,99652.25
2018-11-02T12:44:39.067Z,99655.27
2018-11-02T12:47:09.231Z,99656.29
2018-11-02T12:49:39.460Z,99657.72
2018-11-02T12:52:08.859Z,99667.69
2018-11-02T12:54:38.891Z,99659.67
2018-11-02T12:57:08.767Z,99639.77
2018-11-02T12:59:38.399Z,99666.90
2018-11-02T13:02:08.031Z,99672.80
2018-11-02T13:04:37.883Z,99676.99
2018-11-02T13:07:07.598Z,99674.70
2018-11-02T13:09:37.382Z,99676.50
2018-11-02T13:12:07.857Z,99675.70
2018-11-02T13:14:37.423Z,99678.45
2018-11-02T13:17:07.104Z,99676.19
2018-11-02T13:19:43.723Z,99672.07
2018-11-02T13:22:13.551Z,99658.33
2018-11-02T13:24:43.492Z,99677.49
2018-11-02T13:27:13.083Z,99685.06
2018-11-02T13:29:42.983Z,99694.60
2018-11-02T13:32:13.014Z,99692.78
2018-11-02T13:34:42.669Z,99705.85
2018-11-02T13:37:13.351Z,99708.34
2018-11-02T13:39:44.458Z,99708.36
2018-11-02T13:42:14.728Z,99680.59
2018-11-02T13:44:44.523Z,99717.88
2018-11-02T13:47:15.184Z,99696.33
2018-11-02T13:49:45.261Z,99707.33
2018-11-02T13:52:15.055Z,99769.30
2018-11-02T13:54:45.254Z,99705.16
2018-11-02T13:57:14.948Z,99710.23
2018-11-02T13:59:44.799Z,99532.00
2018-11-02T14:02:15.242Z,99709.37
2018-11-02T14:04:44.950Z,99712.88
2018-11-02T14:07:15.097Z,99720.41
2018-11-02T14:09:44.996Z,99725.75
2018-11-02T14:12:15.015Z,99734.73
2018-11-02T14:14:44.808Z,99765.98
2018-11-02T14:17:14.875Z,99740.09
2018-11-02T14:19:44.828Z,99626.55
2018-11-02T14:22:14.428Z,99745.06
2018-11-02T14:24:45.203Z,99762.41
2018-11-02T14:27:15.042Z,99751.84
2018-11-02T14:29:45.072Z,99756.95
2018-11-02T14:32:15.489Z,99718.19
2018-11-02T14:34:45.251Z,99764.98
2018-11-02T14:37:15.630Z,99764.42
2018-11-02T14:39:45.772Z,99657.35
2018-11-02T14:42:15.549Z,99784.92
2018-11-02T14:44:45.240Z,99789.30
2018-11-02T14:47:15.723Z,99786.47
2018-11-02T14:49:45.403Z,99796.08
2018-11-02T14:52:16.250Z,99791.89
2018-11-02T14:54:46.108Z,99800.96
2018-11-02T14:57:15.703Z,99800.00
2018-11-02T14:59:46.117Z,99794.20
2018-11-02T15:02:16.299Z,99804.12
2018-11-02T15:04:46.040Z,99807.78
2018-11-02T15:07:15.631Z,99810.58
2018-11-02T15:09:45.628Z,99808.45
2018-11-02T15:12:15.408Z,99798.77
2018-11-02T15:14:45.303Z,99804.40
2018-11-02T15:17:15.699Z,99799.12
2018-11-02T15:19:45.736Z,99760.44
2018-11-02T15:22:15.347Z,99781.72
2018-11-02T15:24:45.748Z,99488.66
2018-11-02T15:27:15.372Z,99777.50
2018-11-02T15:29:45.015Z,99777.70
2018-11-02T15:32:15.004Z,99768.11
2018-11-02T15:34:46.225Z,99773.87
2018-11-02T15:37:16.670Z,99763.96
2018-11-02T15:39:46.646Z,99783.29
2018-11-02T15:42:16.572Z,99773.21
2018-11-02T15:44:46.538Z,99757.16
2018-11-02T15:47:16.911Z,99797.94
2018-11-02T15:49:46.635Z,99783.95
2018-11-02T15:52:16.443Z,99787.98
2018-11-02T15:54:46.699Z,99785.14
2018-11-02T15:57:16.786Z,99789.42
2018-11-02T15:59:46.519Z,99761.42
2018-11-02T16:02:17.402Z,99792.24
2018-11-02T16:04:47.189Z,99785.41
2018-11-02T16:07:17.483Z,99792.49
2018-11-02T16:09:47.422Z,99813.42
2018-11-02T16:12:17.643Z,99818.47
2018-11-02T16:14:47.805Z,99802.20
2018-11-02T16:17:17.989Z,99759.16
2018-11-02T16:19:48.527Z,99796.40
2018-11-02T16:22:18.503Z,99770.13
2018-11-02T16:24:48.982Z,99810.45
2018-11-02T16:27:18.541Z,99828.63
2018-11-02T16:29:50.354Z,99835.98
2018-11-02T16:32:21.068Z,99845.30
2018-11-02T16:34:50.699Z,99856.53
2018-11-02T16:37:20.886Z,99861.77
2018-11-02T16:39:50.950Z,99863.49
2018-11-02T16:42:20.884Z,99869.19
2018-11-02T16:44:50.667Z,99862.30
2018-11-02T16:47:20.781Z,99865.17
2018-11-02T16:49:50.951Z,99925.51
2018-11-02T16:52:20.615Z,99869.25
2018-11-02T16:54:50.563Z,99870.11
2018-11-02T16:57:20.217Z,99883.06
2018-11-02T16:59:49.856Z,99863.16
2018-11-02T17:02:20.216Z,99890.16
2018-11-02T17:04:50.036Z,99902.89
2018-11-02T17:07:19.731Z,99908.66
2018-11-02T17:09:50.405Z,99912.44
2018-11-02T17:12:21.182Z,99881.10
2018-11-02T17:14:50.799Z,99902.48
2018-11-02T17:17:21.342Z,99943.90
2018-11-02T17:19:51.081Z,99946.67
2018-11-02T17:22:21.410Z,99976.94
2018-11-02T17:24:51.751Z,100013.31
2018-11-02T17:27:21.752Z,99961.77
2018-11-02T17:29:51.608Z,99968.73
2018-11-02T17:32:21.870Z,99968.58
2018-11-02T17:34:51.536Z,99841.33
2018-11-02T17:37:21.107Z,99957.34
2018-11-02T17:39:51.031Z,99958.41
2018-11-02T17:42:21.487Z,99962.09
2018-11-02T17:44:51.080Z,99939.74
2018-11-02T17:47:20.988Z,99961.34
2018-11-02T17:49:51.125Z,99986.69
2018-11-02T17:52:20.764Z,99978.84
2018-11-02T17:54:50.685Z,99982.38
2018-11-02T17:57:20.298Z,99983.61
2018-11-02T17:59:50.492Z,99983.07
2018-11-02T18:02:20.397Z,99982.89
2018-11-02T18:04:50.583Z,99990.00
2018-11-02T18:07:20.275Z,99999.34
2018-11-02T18:09:50.195Z,99997.95
2018-11-02T18:12:19.834Z,100009.22
2018-11-02T18:14:49.488Z,100009.00
2018-11-02T18:17:19.927Z,100048.47
2018-11-02T18:19:49.572Z,100005.59
2018-11-02T18:22:19.819Z,100008.28
2018-11-02T18:24:49.748Z,100008.25
2018-11-02T18:27:19.887Z,100012.70
2018-11-02T18:29:51.122Z,100017.38
2018-11-02T18:32:21.772Z,100026.63
2018-11-02T18:34:51.846Z,100080.01
2018-11-02T18:37:21.818Z,99977.63
2018-11-02T18:39:52.583Z,100030.34
2018-11-02T18:42:22.395Z,100026.99
2018-11-02T18:44:52.131Z,100073.69
2018-11-02T18:47:22.251Z,100046.35
2018-11-02T18:49:51.959Z,100059.85
2018-11-02T18:52:21.649Z,100065.02
2018-11-02T18:54:51.608Z,100063.57
2018-11-02T18:57:21.275Z,100066.74
2018-11-02T18:59:51.601Z,100061.78
2018-11-02T19:02:21.763Z,100049.72
2018-11-02T19:04:51.413Z,100076.64
2018-11-02T19:07:21.045Z,100077.45
2018-11-02T19:09:51.647Z,100074.06
2018-11-02T19:12:21.507Z,100077.19
2018-11-02T19:14:51.091Z,100047.52
2018-11-02T19:17:21.226Z,100071.52
2018-11-02T19:19:51.628Z,100090.69
2018-11-02T19:22:21.384Z,100072.77
2018-11-02T19:24:51.410Z,100071.26
2018-11-02T19:27:22.471Z,100068.05
2018-11-02T19:29:52.863Z,100085.55
2018-11-02T19:32:22.939Z,100084.81
2018-11-02T19:34:53.052Z,100083.93
2018-11-02T19:37:23.587Z,100083.14
2018-11-02T19:39:54.994Z,100096.09
2018-11-02T19:42:24.567Z,100100.64
2018-11-02T19:44:55.552Z,100104.81
2018-11-02T19:47:30.247Z,100088.16
2018-11-02T19:50:00.759Z,100106.48
2018-11-02T19:52:31.243Z,100088.61
2018-11-02T19:55:01.427Z,100095.41
2018-11-02T19:57:31.816Z,100112.48
2018-11-02T20:00:03.057Z,100119.48
2018-11-02T20:02:33.595Z,100122.08
2018-11-02T20:05:04.050Z,100122.13
2018-11-02T20:07:34.680Z,100136.80
2018-11-02T20:10:05.239Z,100136.95
2018-11-02T20:12:34.997Z,100127.47
2018-11-02T20:15:06.069Z,100137.58
2018-11-02T20:17:36.617Z,100140.12
2018-11-02T20:20:07.363Z,100127.02
2018-11-02T20:22:37.614Z,100139.17
2018-11-02T20:25:08.326Z,100146.36
2018-11-02T20:27:38.571Z,100136.64
2018-11-02T20:30:11.553Z,100136.06
2018-11-02T20:32:41.389Z,100139.23
2018-11-02T20:35:11.058Z,100136.69
2018-11-02T20:37:41.395Z,100135.30
2018-11-02T20:40:13.680Z,100136.11
2018-11-02T20:42:44.519Z,100138.78
2018-11-02T20:45:14.505Z,100068.67
2018-11-02T20:47:49.192Z,100141.51
2018-11-02T20:50:19.368Z,100144.55
2018-11-02T20:52:49.251Z,100147.77
2018-11-02T20:55:19.133Z,100149.98
2018-11-02T20:57:49.203Z,100158.31
2018-11-02T21:00:23.933Z,100163.08
2018-11-02T21:02:54.020Z,100174.52
2018-11-02T21:05:24.080Z,100179.48
2018-11-02T21:07:54.493Z,100192.56
2018-11-02T21:10:24.900Z,100174.11
2018-11-02T21:12:54.939Z,100199.16
2018-11-02T21:15:26.139Z,100202.33
2018-11-02T21:17:56.040Z,100203.23
2018-11-02T21:20:26.516Z,100089.55
2018-11-02T21:22:56.246Z,100199.31
2018-11-02T21:25:26.308Z,100200.91
2018-11-02T21:27:55.971Z,100203.17
2018-11-02T21:30:26.499Z,100204.02
2018-11-02T21:32:56.408Z,100198.91
2018-11-02T21:35:26.648Z,100192.02
2018-11-02T21:37:56.994Z,100152.26
2018-11-02T21:40:27.292Z,100194.95
2018-11-02T21:42:57.663Z,100179.48
2018-11-02T21:45:27.543Z,100199.34
2018-11-02T21:47:57.203Z,100193.36
2018-11-02T21:50:26.856Z,100191.42
2018-11-02T21:52:56.744Z,100201.73
2018-11-02T21:55:26.992Z,100165.73
2018-11-02T21:57:57.166Z,100206.63
2018-11-02T22:00:27.680Z,100211.51
2018-11-02T22:02:58.695Z,100168.37
2018-11-02T22:05:28.286Z,100203.28
2018-11-02T22:07:58.234Z,100203.23
2018-11-02T22:10:28.313Z,100204.81
2018-11-02T22:12:59.311Z,100206.64
2018-11-02T22:15:29.236Z,100205.96
2018-11-02T22:17:59.440Z,100204.62
2018-11-02T22:20:29.100Z,100202.87
2018-11-02T22:22:59.064Z,100219.13
2018-11-02T22:25:28.680Z,100219.30
2018-11-02T22:27:58.260Z,100224.01
2018-11-02T22:30:28.155Z,100229.75
2018-11-02T22:32:58.443Z,100234.91
2018-11-02T22:35:28.040Z,100240.30
2018-11-02T22:37:57.940Z,100238.91
2018-11-02T22:40:27.565Z,100237.29
2018-11-02T22:42:57.214Z,100237.89
2018-11-02T22:45:27.102Z,100235.55
2018-11-02T22:48:02.222Z,100198.50
2018-11-02T22:50:32.463Z,100236.88
2018-11-02T22:53:03.223Z,100244.61
2018-11-02T22:55:33.436Z,100204.88
2018-11-02T22:58:03.605Z,100242.59
2018-11-02T23:00:34.570Z,100252.70
2018-11-02T23:03:04.740Z,100250.02
2018-11-02T23:05:35.130Z,100245.15
2018-11-02T23:08:05.828Z,100250.91
2018-11-02T23:10:35.591Z,100252.69
2018-11-02T23:13:05.274Z,100254.95
2018-11-02T23:15:35.219Z,100258.17
2018-11-02T23:18:04.853Z,100253.06
2018-11-02T23:20:34.456Z,100252.12
2018-11-02T23:23:05.296Z,100246.62
2018-11-02T23:25:36.192Z,100243.26
2018-11-02T23:28:06.005Z,100246.66
2018-11-02T23:30:36.944Z,100246.22
2018-11-02T23:33:06.766Z,100253.37
2018-11-02T23:35:36.477Z,100246.77
2018-11-02T23:38:07.499Z,100195.14
2018-11-02T23:40:37.262Z,100208.12
2018-11-02T23:43:07.543Z,100233.05
2018-11-02T23:45:37.938Z,100239.63
2018-11-02T23:48:13.748Z,100248.95
2018-11-02T23:50:44.040Z,100252.53
2018-11-02T23:53:13.846Z,100257.09
2018-11-02T23:55:43.843Z,100192.83
2018-11-02T23:58:14.405Z,100249.39
